Pioneer Knutsen — LMIK — position and weather

sailwx.info

Track history (hours):
 
Tides and Currents Weather Stations Pressure Air Temp Water Temp Dewpoint Dewpoint Depression Visibility Wind Speed Wind Dir Waves Ship Positions

Pioneer Knutsen

Last reported at 2016-May-25 22:26 UTC. Time now 2016-May-26 10:43 UTC.
Position N 61°34' E 004°59'.

Length 70 m; draft 3.6 m.

Type: Ship. MMSI: 259393000.

Date/timePositionNaut miles runAvg speedWind from/ knotsBaromVisibWave heightAir tempDewpointWater temp
2016-May-25 22:26N 61°34' E 004°59'1011.0
2016-May-25 21:31N 61°24' E 004°59'8 8.6
2016-May-25 20:33N 61°16' E 004°55'175 3.6
2016-May-23 20:15N 63°29' E 008°60'811.1
2016-May-23 19:33N 63°33' E 009°15'1110.7
2016-May-23 18:33N 63°41' E 009°29'4 1.0
2016-May-23 14:14N 63°45' E 009°32'811.5
2016-May-23 13:33N 63°37' E 009°28'1211.1
2016-May-23 12:30N 63°30' E 009°07'13511.2
2016-May-23 00:30N 62°13' E 005°05'910.0
2016-May-22 23:33N 62°04' E 005°07'1110.4
2016-May-22 22:33N 61°53' E 005°10'5 0.2
2016-May-21 22:33N 61°48' E 005°07'6 6.2
2016-May-21 21:33N 61°55' E 005°07'1010.3
2016-May-21 20:33N 62°05' E 005°07'14010.8
2016-May-21 07:33N 63°31' E 009°08'1111.1
2016-May-21 06:33N 63°37' E 009°28'7610.4
2016-May-20 23:15N 64°43' E 010°53'710.5
2016-May-20 22:33N 64°48' E 011°06'1010.4
2016-May-20 21:33N 64°56' E 011°23'31 1.6
2016-May-20 02:22N 65°22' E 012°04'1011.8
2016-May-20 01:34N 65°13' E 011°54'1211.8
2016-May-20 00:34N 65°02' E 011°43'9810.9
2016-May-19 15:33N 63°43' E 009°31'1210.4
2016-May-19 14:23N 63°32' E 009°16'  
2016-May-17 08:33N 63°30' E 009°07'1110.6
2016-May-17 07:33N 63°36' E 009°27'7610.8
2016-May-17 00:32N 64°42' E 010°51'1111.1
2016-May-16 23:33N 64°49' E 011°09'1111.0
2016-May-16 22:34N 64°57' E 011°29'1110.5
2016-May-16 21:34N 65°04' E 011°46'1110.7
2016-May-16 20:34N 65°14' E 011°55'8 0.5
2016-May-16 03:09N 65°22' E 012°04'712.0
2016-May-16 02:33N 65°15' E 011°56'1212.0
2016-May-16 01:33N 65°04' E 011°45'1111.0
2016-May-16 00:33N 64°56' E 011°27'1110.9
2016-May-15 23:33N 64°49' E 011°08'  
Track history (hours):
 
Tides and Currents Weather Stations Pressure Air Temp Water Temp Dewpoint Dewpoint Depression Visibility Wind Speed Wind Dir Waves Ship Positions

Pioneer Knutsen

Last reported at 2016-May-25 22:26 UTC. Time now 2016-May-26 10:43 UTC.
Position N 61°34' E 004°59'.

Length 70 m; draft 3.6 m.

Type: Ship. MMSI: 259393000.

Date/timePositionNaut miles runAvg speedWind from/ knotsBaromVisibWave heightAir tempDewpointWater temp
2016-May-25 22:26N 61°34' E 004°59'1011.0
2016-May-25 21:31N 61°24' E 004°59'8 8.6
2016-May-25 20:33N 61°16' E 004°55'175 3.6
2016-May-23 20:15N 63°29' E 008°60'811.1
2016-May-23 19:33N 63°33' E 009°15'1110.7
2016-May-23 18:33N 63°41' E 009°29'4 1.0
2016-May-23 14:14N 63°45' E 009°32'811.5
2016-May-23 13:33N 63°37' E 009°28'1211.1
2016-May-23 12:30N 63°30' E 009°07'13511.2
2016-May-23 00:30N 62°13' E 005°05'910.0
2016-May-22 23:33N 62°04' E 005°07'1110.4
2016-May-22 22:33N 61°53' E 005°10'5 0.2
2016-May-21 22:33N 61°48' E 005°07'6 6.2
2016-May-21 21:33N 61°55' E 005°07'1010.3
2016-May-21 20:33N 62°05' E 005°07'14010.8
2016-May-21 07:33N 63°31' E 009°08'1111.1
2016-May-21 06:33N 63°37' E 009°28'7610.4
2016-May-20 23:15N 64°43' E 010°53'710.5
2016-May-20 22:33N 64°48' E 011°06'1010.4
2016-May-20 21:33N 64°56' E 011°23'31 1.6
2016-May-20 02:22N 65°22' E 012°04'1011.8
2016-May-20 01:34N 65°13' E 011°54'1211.8
2016-May-20 00:34N 65°02' E 011°43'9810.9
2016-May-19 15:33N 63°43' E 009°31'1210.4
2016-May-19 14:23N 63°32' E 009°16'  
2016-May-17 08:33N 63°30' E 009°07'1110.6
2016-May-17 07:33N 63°36' E 009°27'7610.8
2016-May-17 00:32N 64°42' E 010°51'1111.1
2016-May-16 23:33N 64°49' E 011°09'1111.0
2016-May-16 22:34N 64°57' E 011°29'1110.5
2016-May-16 21:34N 65°04' E 011°46'1110.7
2016-May-16 20:34N 65°14' E 011°55'8 0.5
2016-May-16 03:09N 65°22' E 012°04'712.0
2016-May-16 02:33N 65°15' E 011°56'1212.0
2016-May-16 01:33N 65°04' E 011°45'1111.0
2016-May-16 00:33N 64°56' E 011°27'1110.9
2016-May-15 23:33N 64°49' E 011°08'  

Dump ship's entire track history